Saint George, UT (84770)

12:03 PM MDT on August 29, 2014 (GMT -0600)
Saint George Municipal | Change Station
CLOSE
Current Station
Airport
Location: St. George,
Elevation: 2940 ft
Nearby Weather Stations

Elev 2940 ft 37.09 °N, 113.59 °W | Updated 8 minutes ago

Clear
Clear
82 °F
Feels Like 82 °F
N
0
Wind Variable Wind from North

Today
High -- | Low -- °F
--% Chance of Precip.
Yesterday
High -- | Low -- °F
Precip. -- in
7:02 AM 8:07 PM
Waxing Crescent, 15% visible
Pressure 30.03 in
Visibility 10.0 miles
Clouds Clear
Dew Point 46 °F
Humidity 28%
Rainfall 0.00 in
Snow Depth Not available.
UV 9 out of 12
Pollen 6.90 out of 12
Air Quality Not available.
Flu Activity Not available.
METAR KSGU 291755Z AUTO 00000KT 10SM CLR 28/08 A3003 RMK AO1 10280 20190 57007

More Conditions Fewer Conditions

Pressure 30.03 in
Visibility 10.0 miles
Clouds Clear
Dew Point 46 °F
Humidity 28%
Rainfall 0.00 in
Snow Depth Not available.
UV 9 out of 12
Pollen 6.90 out of 12
Air Quality Not available.
Flu Activity Not available.
METAR KSGU 291755Z AUTO 00000KT 10SM CLR 28/08 A3003 RMK AO1 10280 20190 57007

More Conditions Fewer Conditions

10-Day Weather Forecast

Almanac

Astronomy

Aug. 29, 2014 Rise Set
Actual Time 7:02 AM MDT 8:07 PM MDT
Civil Twilight 6:35 AM MDT 8:33 PM MDT
Nautical Twilight 6:04 AM MDT 9:05 PM MDT
Astronomical Twilight 5:31 AM MDT 9:38 PM MDT
Moon 10:49 AM MDT 10:13 PM MDT
Length of Visible Light 13h 57m
Length of Day
13h 04m
Tomorrow will be 2m 16s shorter.
Waxing Crescent, 15% of the Moon is Illuminated
Today
Waxing Crescent
Sep 2
First Quarter
Sep 8
Full
Sep 15
Last Quarter
Sep 24
New

Today's Extremes

State Highs State Lows

Community

WunderPhotos

Upload Photos

1,748,307 photos uploaded!

Nearby

Snow Depth

Station Depth Elevation
Webster Flat 0 in 9200 ft
Midway Valley 4 in 9800 ft
Long Valley Jct 1 in 7360 ft
Agua Canyon 2 in 8900 ft
Merchant Valley 0 in 8750 ft

Earthquake Activity

City Distance Mag. Time & Date
No recent earthquake activity has been reported nearby.
Minimum magnitude displayed is 2.5.

Coastal Water Temperatures

Place Temperature
No Stations Reporting

Nearby Weather Stations